CFY2 weather

Grist Lake Airport
Grist Lake, Alberta, Canada

Public forecast

Using degrees Celsius for public forecast. Weather courtesy of forecast.io.

METAR (pilot weather report)

Closest report is CFB Cold Lake, 60.2 nm (111.4 km) S. Retrieved 2019/04/24 18:00 UTC (15 minutes ago):

CYOD 241800Z CCA 28016G25KT 15SM FEW070 12/M09 A2984 RMK AC1 SLP121

TAF (pilot weather forecast)

Closest forecast is CFB Cold Lake, 60.2 nm (111.4 km) S. Retrieved 2019/04/24 18:35 UTC (0 seconds ago):

TAF CYOD 241730Z 2418/2518 30012G22KT P6SM FEW070 FM242000 28018G28KT P6SM SCT070 BKN120 PROB30 2422/2502 VRB15G30KT 2SM TSRA BR BKN050CB FM250200 30018G28KT P6SM BKN060 BECMG 2508/2510 30012G22KT FEW130 RMK NXT FCST BY 242100Z